Festivo — EAEQ — position and weather

sailwx.info

Track history (hours):
 
Tides and Currents Weather Stations Pressure Air Temp Water Temp Dewpoint Dewpoint Depression Visibility Wind Speed Wind Dir Waves Ship Positions

Festivo

Last reported at 2018-Apr-24 06:58 UTC. Time now 2018-Apr-24 07:07 UTC.
Position N 35°54' W 005°19'.

Length 136 m; draft 4.5 m.

Type: Cargo ship. MMSI: 225410000.

Date/timePositionNaut miles runAvg speedWind from/ knotsBaromVisibWave heightAir tempDewpointWater temp
2018-Apr-24 06:58N 35°54' W 005°19'0 0.0
2018-Apr-24 06:31N 35°54' W 005°19'0 0.0
2018-Apr-24 06:01N 35°54' W 005°19'0 0.0
2018-Apr-24 05:31N 35°54' W 005°19'0 0.0
2018-Apr-24 04:58N 35°54' W 005°19'0 0.8
2018-Apr-24 04:29N 35°54' W 005°19'3 6.8
2018-Apr-24 04:00N 35°56' W 005°16'3 6.3
2018-Apr-24 03:30N 35°58' W 005°13'  
2018-Apr-21 11:29N 35°52' W 005°11'5 8.7
2018-Apr-21 10:57N 35°54' W 005°16'3 6.6
2018-Apr-21 10:30N 35°54' W 005°19'0 0.3
2018-Apr-21 10:00N 35°54' W 005°19'0 0.0
2018-Apr-21 09:30N 35°54' W 005°19'0 0.0
2018-Apr-21 09:00N 35°54' W 005°19'0 0.0
2018-Apr-21 08:27N 35°54' W 005°19'0 0.0
2018-Apr-21 08:00N 35°54' W 005°19'0 0.6
2018-Apr-21 07:30N 35°54' W 005°19'2 4.4
2018-Apr-21 07:01N 35°55' W 005°18'3 6.9
2018-Apr-21 06:30N 35°57' W 005°14'4 0.1
2018-Apr-19 09:39N 36°00' W 005°13'211.5
2018-Apr-19 09:29N 35°59' W 005°15'510.7
2018-Apr-19 09:00N 35°55' W 005°18'1 2.4
2018-Apr-19 08:30N 35°54' W 005°19'0 0.0
2018-Apr-19 08:00N 35°54' W 005°19'0 0.0
2018-Apr-19 07:30N 35°54' W 005°19'0 0.0
2018-Apr-19 06:57N 35°54' W 005°19'0 0.0
2018-Apr-19 06:30N 35°54' W 005°19'1 1.6
2018-Apr-19 06:01N 35°54' W 005°19'610.2
2018-Apr-19 05:28N 35°57' W 005°13'  
2018-Apr-14 09:19N 35°57' W 005°14'311.2
2018-Apr-14 09:00N 35°55' W 005°18'1 2.2
2018-Apr-14 08:30N 35°54' W 005°19'0 0.0
2018-Apr-14 07:58N 35°54' W 005°19'0 0.0
2018-Apr-14 07:28N 35°54' W 005°19'0 0.0
2018-Apr-14 06:58N 35°54' W 005°19'  
Track history (hours):
 
Tides and Currents Weather Stations Pressure Air Temp Water Temp Dewpoint Dewpoint Depression Visibility Wind Speed Wind Dir Waves Ship Positions

Festivo

Last reported at 2018-Apr-24 06:58 UTC. Time now 2018-Apr-24 07:07 UTC.
Position N 35°54' W 005°19'.

Length 136 m; draft 4.5 m.

Type: Cargo ship. MMSI: 225410000.

Date/timePositionNaut miles runAvg speedWind from/ knotsBaromVisibWave heightAir tempDewpointWater temp
2018-Apr-24 06:58N 35°54' W 005°19'0 0.0
2018-Apr-24 06:31N 35°54' W 005°19'0 0.0
2018-Apr-24 06:01N 35°54' W 005°19'0 0.0
2018-Apr-24 05:31N 35°54' W 005°19'0 0.0
2018-Apr-24 04:58N 35°54' W 005°19'0 0.8
2018-Apr-24 04:29N 35°54' W 005°19'3 6.8
2018-Apr-24 04:00N 35°56' W 005°16'3 6.3
2018-Apr-24 03:30N 35°58' W 005°13'  
2018-Apr-21 11:29N 35°52' W 005°11'5 8.7
2018-Apr-21 10:57N 35°54' W 005°16'3 6.6
2018-Apr-21 10:30N 35°54' W 005°19'0 0.3
2018-Apr-21 10:00N 35°54' W 005°19'0 0.0
2018-Apr-21 09:30N 35°54' W 005°19'0 0.0
2018-Apr-21 09:00N 35°54' W 005°19'0 0.0
2018-Apr-21 08:27N 35°54' W 005°19'0 0.0
2018-Apr-21 08:00N 35°54' W 005°19'0 0.6
2018-Apr-21 07:30N 35°54' W 005°19'2 4.4
2018-Apr-21 07:01N 35°55' W 005°18'3 6.9
2018-Apr-21 06:30N 35°57' W 005°14'4 0.1
2018-Apr-19 09:39N 36°00' W 005°13'211.5
2018-Apr-19 09:29N 35°59' W 005°15'510.7
2018-Apr-19 09:00N 35°55' W 005°18'1 2.4
2018-Apr-19 08:30N 35°54' W 005°19'0 0.0
2018-Apr-19 08:00N 35°54' W 005°19'0 0.0
2018-Apr-19 07:30N 35°54' W 005°19'0 0.0
2018-Apr-19 06:57N 35°54' W 005°19'0 0.0
2018-Apr-19 06:30N 35°54' W 005°19'1 1.6
2018-Apr-19 06:01N 35°54' W 005°19'610.2
2018-Apr-19 05:28N 35°57' W 005°13'  
2018-Apr-14 09:19N 35°57' W 005°14'311.2
2018-Apr-14 09:00N 35°55' W 005°18'1 2.2
2018-Apr-14 08:30N 35°54' W 005°19'0 0.0
2018-Apr-14 07:58N 35°54' W 005°19'0 0.0
2018-Apr-14 07:28N 35°54' W 005°19'0 0.0
2018-Apr-14 06:58N 35°54' W 005°19'  

Dump ship's entire track history